createdAt,value
2023-03-30T00:01:12.261Z,35.90
2023-03-30T00:03:43.476Z,37.13
2023-03-30T00:06:13.376Z,37.13
2023-03-30T00:08:40.347Z,35.77
2023-03-30T00:11:17.558Z,34.53
2023-03-30T00:13:45.315Z,33.87
2023-03-30T00:16:14.299Z,32.97
2023-03-30T00:18:41.662Z,33.17
2023-03-30T00:21:12.074Z,33.13
2023-03-30T00:23:40.227Z,31.70
2023-03-30T00:26:09.041Z,32.73
2023-03-30T00:28:36.345Z,30.70
2023-03-30T00:31:03.497Z,31.63
2023-03-30T00:33:44.715Z,29.93
2023-03-30T00:36:14.021Z,30.17
2023-03-30T00:38:41.370Z,29.47
2023-03-30T00:41:09.697Z,29.00
2023-03-30T00:44:02.081Z,28.33
2023-03-30T00:46:31.675Z,28.33
2023-03-30T00:49:05.576Z,27.03
2023-03-30T00:51:38.338Z,27.53
2023-03-30T00:54:18.592Z,26.80
2023-03-30T00:56:46.223Z,26.00
2023-03-30T00:59:13.632Z,26.70
2023-03-30T01:01:41.986Z,25.70
2023-03-30T01:04:10.251Z,26.07
2023-03-30T01:06:40.598Z,25.33
2023-03-30T01:09:08.918Z,24.40
2023-03-30T01:11:35.990Z,25.27
2023-03-30T01:14:06.526Z,25.00
2023-03-30T01:16:36.511Z,24.43
2023-03-30T01:19:43.920Z,24.10
2023-03-30T01:22:50.403Z,23.00
2023-03-30T01:25:57.692Z,23.90
2023-03-30T01:28:50.375Z,24.60
2023-03-30T01:31:35.841Z,23.97
2023-03-30T01:34:20.881Z,24.53
2023-03-30T01:37:13.365Z,24.43
2023-03-30T01:39:45.344Z,24.63
2023-03-30T01:42:46.581Z,24.80
2023-03-30T01:45:19.976Z,24.80
2023-03-30T01:48:19.506Z,26.00
2023-03-30T01:50:52.941Z,27.00
2023-03-30T01:53:31.440Z,26.80
2023-03-30T01:56:06.970Z,28.70
2023-03-30T01:58:47.434Z,27.67
2023-03-30T02:01:18.234Z,27.77
2023-03-30T02:03:49.784Z,29.10
2023-03-30T02:06:24.869Z,29.40
2023-03-30T02:08:54.877Z,29.73
2023-03-30T02:11:24.519Z,29.70
2023-03-30T02:13:53.898Z,30.17
2023-03-30T02:16:29.329Z,30.03
2023-03-30T02:18:58.015Z,30.37
2023-03-30T02:21:26.118Z,28.93
2023-03-30T02:23:56.136Z,27.87
2023-03-30T02:26:23.504Z,29.67
2023-03-30T02:28:52.352Z,28.30
2023-03-30T02:31:19.667Z,28.60
2023-03-30T02:34:02.899Z,26.10
2023-03-30T02:36:38.716Z,26.73
2023-03-30T02:39:31.567Z,28.73
2023-03-30T02:42:20.517Z,27.60
2023-03-30T02:45:19.131Z,26.90
2023-03-30T02:48:06.220Z,27.73
2023-03-30T02:50:51.921Z,25.77
2023-03-30T02:53:49.507Z,24.77
2023-03-30T02:56:42.392Z,26.13
2023-03-30T02:59:14.345Z,25.83
2023-03-30T03:02:04.743Z,29.03
2023-03-30T03:04:34.302Z,27.03
2023-03-30T03:07:02.801Z,25.50
2023-03-30T03:09:30.242Z,26.10
2023-03-30T03:11:57.122Z,28.67
2023-03-30T03:14:26.747Z,28.57
2023-03-30T03:16:55.137Z,28.97
2023-03-30T03:19:21.973Z,28.70
2023-03-30T03:21:49.164Z,27.10
2023-03-30T03:24:17.592Z,29.53
2023-03-30T03:26:44.490Z,28.07
2023-03-30T03:29:11.461Z,28.53
2023-03-30T03:31:38.372Z,28.50
2023-03-30T03:34:05.345Z,29.03
2023-03-30T03:36:33.051Z,29.13
2023-03-30T03:38:59.910Z,29.53
2023-03-30T03:41:26.792Z,27.87
2023-03-30T03:43:53.677Z,30.30
2023-03-30T03:46:20.757Z,30.80
2023-03-30T03:48:47.599Z,28.10
2023-03-30T03:51:14.672Z,28.73
2023-03-30T03:53:41.845Z,28.57
2023-03-30T03:56:08.879Z,27.40
2023-03-30T03:58:35.997Z,28.17
2023-03-30T04:01:03.664Z,27.20
2023-03-30T04:03:30.855Z,27.67
2023-03-30T04:06:02.675Z,25.77
2023-03-30T04:08:29.806Z,26.80
2023-03-30T04:10:56.822Z,25.13
2023-03-30T04:13:23.623Z,25.83
2023-03-30T04:15:50.761Z,24.93
2023-03-30T04:18:20.550Z,24.93
2023-03-30T04:20:49.686Z,24.47
2023-03-30T04:23:22.110Z,23.53
2023-03-30T04:25:49.206Z,23.60
2023-03-30T04:28:16.135Z,23.37
2023-03-30T04:30:45.830Z,23.87
2023-03-30T04:33:14.877Z,22.60
2023-03-30T04:35:41.758Z,23.23
2023-03-30T04:38:08.792Z,22.60
2023-03-30T04:40:35.773Z,22.50
2023-03-30T04:43:04.120Z,22.30
2023-03-30T04:45:31.547Z,21.33
2023-03-30T04:48:01.587Z,18.63
2023-03-30T04:50:28.378Z,21.93
2023-03-30T04:52:55.152Z,20.37
2023-03-30T04:55:22.198Z,19.80
2023-03-30T04:57:48.927Z,19.07
2023-03-30T05:00:16.467Z,19.37
2023-03-30T05:02:43.439Z,19.00
2023-03-30T05:05:10.684Z,19.20
2023-03-30T05:07:37.586Z,18.20
2023-03-30T05:10:08.098Z,17.87
2023-03-30T05:12:34.885Z,18.30
2023-03-30T05:15:01.834Z,17.20
2023-03-30T05:17:28.808Z,16.53
2023-03-30T05:19:56.553Z,16.47
2023-03-30T05:22:23.483Z,16.17
2023-03-30T05:24:52.361Z,16.70
2023-03-30T05:27:19.785Z,16.97
2023-03-30T05:29:46.709Z,16.20
2023-03-30T05:32:13.648Z,15.47
2023-03-30T05:34:40.432Z,14.73
2023-03-30T05:37:07.521Z,14.07
2023-03-30T05:39:34.333Z,14.80
2023-03-30T05:42:01.861Z,14.73
2023-03-30T05:44:29.871Z,14.83
2023-03-30T05:46:56.662Z,15.03
2023-03-30T05:49:23.756Z,15.43
2023-03-30T05:51:51.141Z,15.00
2023-03-30T05:54:18.142Z,16.03
2023-03-30T05:56:44.945Z,15.70
2023-03-30T05:59:13.101Z,16.60
2023-03-30T06:01:40.286Z,16.10
2023-03-30T06:04:08.284Z,16.10
2023-03-30T06:06:35.405Z,16.17
2023-03-30T06:09:03.138Z,15.03
2023-03-30T06:11:30.434Z,16.20
2023-03-30T06:13:57.480Z,14.53
2023-03-30T06:16:24.733Z,15.60
2023-03-30T06:18:52.523Z,15.17
2023-03-30T06:21:19.467Z,14.83
2023-03-30T06:23:46.595Z,13.33
2023-03-30T06:26:13.815Z,11.83
2023-03-30T06:28:41.576Z,13.37
2023-03-30T06:31:12.425Z,12.20
2023-03-30T06:33:41.721Z,10.93
2023-03-30T06:36:14.094Z,11.47
2023-03-30T06:38:41.480Z,9.83
2023-03-30T06:41:08.570Z,9.10
2023-03-30T06:43:35.565Z,9.57
2023-03-30T06:46:02.618Z,9.57
2023-03-30T06:48:30.147Z,10.40
2023-03-30T06:50:57.203Z,8.50
2023-03-30T06:53:24.656Z,8.10
2023-03-30T06:55:53.692Z,7.87
2023-03-30T06:58:20.911Z,8.47
2023-03-30T07:00:49.332Z,8.03
2023-03-30T07:03:19.984Z,7.63
2023-03-30T07:05:50.998Z,7.63
2023-03-30T07:08:19.134Z,7.47
2023-03-30T07:10:47.478Z,7.40
2023-03-30T07:13:14.731Z,7.60
2023-03-30T07:15:42.074Z,7.30
2023-03-30T07:18:09.336Z,7.80
2023-03-30T07:20:36.671Z,7.10
2023-03-30T07:23:04.018Z,7.73
2023-03-30T07:25:31.996Z,7.70
2023-03-30T07:27:58.870Z,7.07
2023-03-30T07:30:26.429Z,7.00
2023-03-30T07:32:55.556Z,5.83
2023-03-30T07:35:24.600Z,6.40
2023-03-30T07:37:51.913Z,6.67
2023-03-30T07:40:20.187Z,6.27
2023-03-30T07:42:48.328Z,5.30
2023-03-30T07:45:16.433Z,5.53
2023-03-30T07:47:43.746Z,5.50
2023-03-30T07:50:10.844Z,5.50
2023-03-30T07:52:38.177Z,5.23
2023-03-30T07:55:05.561Z,5.20
2023-03-30T07:57:32.898Z,4.90
2023-03-30T07:59:59.861Z,4.87
2023-03-30T08:02:27.441Z,4.73
2023-03-30T08:04:54.573Z,5.33
2023-03-30T08:07:21.731Z,5.30
2023-03-30T08:09:48.946Z,5.23
2023-03-30T08:12:16.126Z,5.27
2023-03-30T08:14:43.023Z,5.10
2023-03-30T08:17:09.882Z,5.13
2023-03-30T08:19:39.584Z,5.30
2023-03-30T08:22:06.358Z,4.90
2023-03-30T08:24:33.355Z,5.17
2023-03-30T08:27:00.186Z,5.07
2023-03-30T08:29:27.075Z,4.90
2023-03-30T08:31:54.022Z,4.90
2023-03-30T08:34:21.024Z,4.40
2023-03-30T08:36:47.955Z,5.20
2023-03-30T08:39:15.763Z,4.87
2023-03-30T08:42:06.395Z,4.80
2023-03-30T08:44:43.123Z,3.53
2023-03-30T08:47:15.660Z,4.03
2023-03-30T08:50:00.414Z,3.77
2023-03-30T08:52:27.495Z,3.27
2023-03-30T08:54:55.150Z,3.20
2023-03-30T08:57:51.660Z,3.57
2023-03-30T09:00:38.705Z,3.27
2023-03-30T09:03:24.245Z,3.80
2023-03-30T09:06:08.031Z,3.80
2023-03-30T09:08:35.170Z,3.53
2023-03-30T09:11:07.393Z,4.30
2023-03-30T09:13:38.063Z,4.13
2023-03-30T09:16:30.087Z,3.93
2023-03-30T09:18:59.398Z,3.63
2023-03-30T09:21:29.558Z,3.57
2023-03-30T09:23:59.247Z,4.03
2023-03-30T09:26:50.485Z,3.40
2023-03-30T09:29:31.808Z,3.30
2023-03-30T09:32:06.044Z,4.20
2023-03-30T09:35:04.706Z,4.17
2023-03-30T09:37:31.725Z,4.10
2023-03-30T09:39:59.486Z,4.50
2023-03-30T09:42:52.251Z,4.70
2023-03-30T09:45:29.023Z,3.60
2023-03-30T09:47:57.217Z,3.63
2023-03-30T09:50:27.909Z,3.90
2023-03-30T09:53:04.060Z,4.17
2023-03-30T09:55:32.593Z,3.77
2023-03-30T09:58:21.481Z,3.80
2023-03-30T10:01:04.011Z,3.97
2023-03-30T10:03:31.065Z,4.10
2023-03-30T10:06:09.650Z,3.63
2023-03-30T10:08:43.383Z,3.77
2023-03-30T10:11:10.658Z,3.60
2023-03-30T10:13:42.102Z,3.40
2023-03-30T10:16:29.667Z,2.83
2023-03-30T10:19:01.676Z,2.80
2023-03-30T10:21:47.846Z,2.70
2023-03-30T10:24:14.741Z,2.37
2023-03-30T10:26:47.025Z,2.27
2023-03-30T10:29:18.548Z,2.20
2023-03-30T10:31:48.546Z,2.13
2023-03-30T10:34:32.418Z,2.30
2023-03-30T10:36:59.594Z,2.17
2023-03-30T10:39:29.982Z,2.40
2023-03-30T10:42:00.056Z,2.27
2023-03-30T10:44:46.497Z,2.80
2023-03-30T10:47:46.546Z,2.17
2023-03-30T10:50:43.559Z,2.40
2023-03-30T10:53:16.088Z,2.27
2023-03-30T10:56:09.419Z,1.70
2023-03-30T10:59:03.935Z,1.80
2023-03-30T11:01:37.168Z,2.00
2023-03-30T11:04:22.523Z,2.10
2023-03-30T11:06:53.542Z,1.70
2023-03-30T11:09:28.260Z,1.87
2023-03-30T11:12:11.598Z,2.10
2023-03-30T11:15:04.459Z,1.70
2023-03-30T11:17:43.900Z,1.83
2023-03-30T11:20:23.840Z,1.60
2023-03-30T11:23:02.155Z,2.00
2023-03-30T11:25:54.067Z,2.03
2023-03-30T11:28:26.639Z,2.20
2023-03-30T11:31:00.127Z,2.10
2023-03-30T11:33:45.034Z,2.73
2023-03-30T11:36:19.725Z,2.47
2023-03-30T11:38:54.963Z,2.50
2023-03-30T11:41:31.717Z,2.50
2023-03-30T11:43:58.705Z,2.23
2023-03-30T11:46:28.843Z,2.70
2023-03-30T11:48:56.182Z,2.00
2023-03-30T11:51:45.077Z,2.70
2023-03-30T11:55:02.425Z,3.03
2023-03-30T11:57:36.179Z,2.50
2023-03-30T12:00:15.177Z,2.33
2023-03-30T12:03:14.144Z,2.40
2023-03-30T12:05:53.554Z,2.60
2023-03-30T12:08:44.223Z,2.87
2023-03-30T12:11:24.060Z,2.73
2023-03-30T12:13:52.383Z,2.73
2023-03-30T12:16:32.079Z,3.13
2023-03-30T12:19:11.627Z,3.60
2023-03-30T12:21:58.287Z,3.00
2023-03-30T12:24:38.688Z,3.40
2023-03-30T12:27:07.485Z,3.67
2023-03-30T12:30:02.326Z,3.50
2023-03-30T12:32:31.392Z,3.17
2023-03-30T12:34:58.738Z,3.40
2023-03-30T12:37:38.246Z,3.10
2023-03-30T12:40:19.285Z,3.10
2023-03-30T12:43:11.218Z,3.20
2023-03-30T12:46:03.036Z,3.63
2023-03-30T12:49:03.615Z,3.67
2023-03-30T12:51:47.158Z,3.00
2023-03-30T12:54:43.318Z,3.60
2023-03-30T12:57:35.340Z,3.30
2023-03-30T13:00:41.756Z,2.50
2023-03-30T13:03:18.543Z,2.87
2023-03-30T13:05:51.602Z,2.67
2023-03-30T13:08:22.068Z,3.47
2023-03-30T13:10:49.067Z,2.40
2023-03-30T13:13:24.254Z,2.40
2023-03-30T13:15:55.918Z,2.60
2023-03-30T13:18:35.769Z,2.33
2023-03-30T13:21:17.765Z,2.30
2023-03-30T13:23:59.898Z,2.23
2023-03-30T13:26:34.872Z,2.40
2023-03-30T13:29:16.062Z,2.17
2023-03-30T13:32:21.068Z,2.50
2023-03-30T13:35:05.979Z,2.17
2023-03-30T13:38:08.371Z,1.70
2023-03-30T13:41:08.975Z,2.20
2023-03-30T13:43:54.233Z,2.10
2023-03-30T13:46:27.504Z,1.90
2023-03-30T13:49:25.132Z,1.70
2023-03-30T13:51:53.251Z,1.50
2023-03-30T13:54:29.283Z,1.40
2023-03-30T13:57:05.030Z,2.13
2023-03-30T13:59:36.446Z,1.67
2023-03-30T14:02:05.479Z,1.70
2023-03-30T14:04:37.375Z,1.50
2023-03-30T14:07:16.287Z,1.80
2023-03-30T14:09:45.423Z,1.63
2023-03-30T14:12:14.147Z,15.13
2023-03-30T14:14:47.243Z,13.77
2023-03-30T14:17:23.919Z,5.93
2023-03-30T14:20:21.219Z,10.43
2023-03-30T14:22:50.534Z,3.03
2023-03-30T14:25:27.417Z,2.53
2023-03-30T14:27:57.284Z,2.40
2023-03-30T14:30:29.709Z,2.10
2023-03-30T14:33:13.330Z,2.67
2023-03-30T14:35:47.111Z,3.20
2023-03-30T14:38:22.325Z,2.80
2023-03-30T14:40:51.937Z,3.10
2023-03-30T14:43:24.777Z,2.50
2023-03-30T14:45:57.452Z,2.37
2023-03-30T14:48:36.915Z,2.73
2023-03-30T14:51:09.923Z,2.60
2023-03-30T14:53:37.105Z,2.80
2023-03-30T14:56:05.295Z,3.40
2023-03-30T14:58:33.572Z,3.33
2023-03-30T15:01:09.180Z,3.17
2023-03-30T15:03:38.196Z,3.30
2023-03-30T15:06:07.470Z,2.57
2023-03-30T15:08:38.992Z,2.73
2023-03-30T15:11:24.509Z,3.13
2023-03-30T15:13:58.083Z,3.00
2023-03-30T15:16:30.312Z,2.47
2023-03-30T15:19:05.425Z,3.40
2023-03-30T15:21:36.384Z,2.80
2023-03-30T15:24:07.389Z,2.90
2023-03-30T15:26:34.848Z,2.80
2023-03-30T15:29:04.611Z,2.73
2023-03-30T15:31:32.024Z,2.60
2023-03-30T15:34:02.283Z,2.73
2023-03-30T15:36:39.649Z,3.23
2023-03-30T15:39:34.305Z,2.77
2023-03-30T15:42:08.098Z,2.80
2023-03-30T15:44:43.227Z,2.70
2023-03-30T15:47:28.593Z,3.93
2023-03-30T15:49:56.280Z,3.80
2023-03-30T15:52:35.048Z,3.60
2023-03-30T15:55:09.181Z,3.17
2023-03-30T15:57:37.864Z,3.67
2023-03-30T16:00:19.889Z,3.77
2023-03-30T16:02:57.977Z,3.40
2023-03-30T16:05:32.126Z,3.10
2023-03-30T16:07:59.499Z,3.30
2023-03-30T16:10:29.206Z,3.40
2023-03-30T16:12:58.383Z,3.80
2023-03-30T16:15:28.350Z,3.00
2023-03-30T16:17:55.714Z,3.53
2023-03-30T16:20:24.213Z,3.43
2023-03-30T16:22:51.626Z,3.30
2023-03-30T16:25:23.220Z,3.03
2023-03-30T16:27:55.755Z,3.10
2023-03-30T16:30:38.713Z,3.60
2023-03-30T16:33:06.029Z,4.13
2023-03-30T16:35:35.747Z,3.43
2023-03-30T16:38:02.623Z,4.07
2023-03-30T16:40:55.242Z,3.83
2023-03-30T16:43:22.466Z,3.33
2023-03-30T16:45:49.617Z,3.83
2023-03-30T16:48:17.234Z,3.60
2023-03-30T16:50:53.461Z,3.73
2023-03-30T16:53:20.911Z,3.53
2023-03-30T16:55:49.252Z,3.67
2023-03-30T16:58:16.639Z,4.03
2023-03-30T17:00:46.632Z,3.53
2023-03-30T17:03:14.406Z,3.90
2023-03-30T17:05:42.699Z,4.23
2023-03-30T17:08:23.122Z,3.57
2023-03-30T17:10:51.645Z,3.93
2023-03-30T17:13:18.919Z,4.17
2023-03-30T17:15:45.909Z,4.07
2023-03-30T17:18:15.318Z,4.10
2023-03-30T17:20:44.973Z,4.17
2023-03-30T17:23:11.879Z,4.07
2023-03-30T17:25:40.052Z,3.93
2023-03-30T17:28:10.404Z,4.30
2023-03-30T17:30:40.940Z,4.73
2023-03-30T17:33:13.026Z,3.80
2023-03-30T17:35:41.146Z,4.70
2023-03-30T17:38:09.442Z,5.23
2023-03-30T17:40:39.057Z,4.23
2023-03-30T17:43:07.599Z,4.93
2023-03-30T17:45:35.732Z,19.87
2023-03-30T17:48:03.936Z,28.80
2023-03-30T17:50:34.036Z,14.27
2023-03-30T17:53:01.350Z,22.37
2023-03-30T17:55:31.096Z,23.80
2023-03-30T17:57:58.088Z,18.93
2023-03-30T18:00:24.947Z,14.43
2023-03-30T18:02:52.839Z,12.93
2023-03-30T18:05:21.657Z,7.50
2023-03-30T18:07:49.073Z,6.77
2023-03-30T18:10:24.788Z,7.33
2023-03-30T18:12:52.581Z,5.80
2023-03-30T18:15:25.390Z,7.50
2023-03-30T18:17:52.919Z,5.40
2023-03-30T18:20:21.493Z,5.27
2023-03-30T18:22:51.063Z,5.40
2023-03-30T18:25:29.735Z,5.07
2023-03-30T18:27:59.634Z,4.80
2023-03-30T18:30:41.037Z,5.40
2023-03-30T18:33:08.379Z,6.13
2023-03-30T18:35:36.807Z,5.73
2023-03-30T18:38:05.275Z,6.00
2023-03-30T18:40:35.290Z,6.03
2023-03-30T18:43:02.283Z,5.87
2023-03-30T18:45:48.750Z,22.60
2023-03-30T18:48:17.928Z,28.60
2023-03-30T18:50:47.136Z,13.40
2023-03-30T18:53:26.001Z,6.53
2023-03-30T18:55:57.513Z,7.37
2023-03-30T18:58:27.599Z,5.63
2023-03-30T19:00:55.364Z,5.87
2023-03-30T19:03:25.465Z,5.20
2023-03-30T19:05:52.852Z,5.37
2023-03-30T19:08:22.045Z,5.43
2023-03-30T19:10:51.333Z,5.17
2023-03-30T19:13:20.149Z,5.23
2023-03-30T19:15:47.955Z,6.20
2023-03-30T19:18:16.240Z,5.17
2023-03-30T19:20:43.994Z,5.30
2023-03-30T19:23:14.020Z,6.33
2023-03-30T19:25:41.910Z,5.97
2023-03-30T19:28:09.611Z,6.90
2023-03-30T19:30:39.558Z,5.93
2023-03-30T19:33:10.442Z,5.17
2023-03-30T19:35:40.172Z,5.40
2023-03-30T19:38:06.920Z,6.00
2023-03-30T19:40:33.836Z,6.00
2023-03-30T19:43:03.316Z,5.23
2023-03-30T19:45:31.947Z,5.67
2023-03-30T19:47:59.205Z,5.30
2023-03-30T19:50:27.982Z,5.73
2023-03-30T19:52:56.612Z,5.00
2023-03-30T19:55:23.563Z,5.40
2023-03-30T19:57:50.443Z,5.70
2023-03-30T20:00:19.212Z,5.17
2023-03-30T20:02:49.924Z,6.23
2023-03-30T20:05:18.214Z,6.50
2023-03-30T20:07:45.669Z,6.77
2023-03-30T20:10:24.752Z,7.03
2023-03-30T20:12:52.655Z,6.57
2023-03-30T20:15:21.205Z,6.33
2023-03-30T20:17:48.387Z,6.27
2023-03-30T20:20:22.962Z,5.83
2023-03-30T20:22:53.659Z,5.50
2023-03-30T20:25:21.965Z,6.10
2023-03-30T20:27:49.697Z,6.20
2023-03-30T20:30:18.155Z,5.40
2023-03-30T20:32:53.039Z,5.20
2023-03-30T20:35:27.583Z,5.50
2023-03-30T20:37:55.639Z,5.13
2023-03-30T20:40:23.303Z,5.07
2023-03-30T20:42:50.333Z,5.53
2023-03-30T20:45:17.875Z,5.00
2023-03-30T20:47:50.321Z,5.73
2023-03-30T20:50:17.266Z,5.37
2023-03-30T20:52:44.190Z,6.13
2023-03-30T20:55:11.176Z,5.87
2023-03-30T20:57:38.953Z,6.07
2023-03-30T21:00:09.735Z,5.83
2023-03-30T21:02:36.542Z,6.63
2023-03-30T21:05:04.205Z,5.87
2023-03-30T21:07:32.356Z,6.63
2023-03-30T21:09:59.226Z,6.90
2023-03-30T21:12:26.525Z,7.47
2023-03-30T21:14:53.736Z,7.07
2023-03-30T21:17:20.640Z,6.73
2023-03-30T21:19:47.421Z,6.83
2023-03-30T21:22:14.262Z,6.60
2023-03-30T21:24:40.966Z,6.60
2023-03-30T21:27:08.079Z,7.00
2023-03-30T21:29:34.911Z,6.90
2023-03-30T21:32:01.822Z,6.03
2023-03-30T21:34:28.793Z,7.13
2023-03-30T21:36:55.768Z,7.50
2023-03-30T21:39:24.078Z,6.70
2023-03-30T21:41:51.170Z,7.47
2023-03-30T21:44:18.012Z,7.33
2023-03-30T21:46:44.999Z,6.63
2023-03-30T21:49:12.872Z,5.97
2023-03-30T21:51:39.769Z,6.27
2023-03-30T21:54:07.984Z,6.00
2023-03-30T21:56:34.838Z,5.50
2023-03-30T21:59:01.840Z,5.70
2023-03-30T22:01:29.028Z,5.27
2023-03-30T22:03:56.180Z,6.07
2023-03-30T22:06:23.841Z,5.70
2023-03-30T22:08:51.036Z,6.43
2023-03-30T22:11:26.271Z,6.17
2023-03-30T22:13:55.489Z,5.43
2023-03-30T22:16:28.480Z,6.00
2023-03-30T22:18:55.895Z,6.43
2023-03-30T22:21:25.980Z,6.50
2023-03-30T22:23:53.100Z,6.70
2023-03-30T22:26:20.125Z,6.93
2023-03-30T22:28:46.992Z,6.93
2023-03-30T22:31:15.573Z,6.23
2023-03-30T22:33:42.619Z,7.20
2023-03-30T22:36:19.877Z,7.57
2023-03-30T22:38:48.545Z,7.63
2023-03-30T22:41:15.761Z,7.03
2023-03-30T22:43:42.800Z,6.97
2023-03-30T22:46:10.358Z,7.73
2023-03-30T22:48:37.967Z,6.90
2023-03-30T22:51:08.560Z,7.23
2023-03-30T22:53:35.907Z,7.37
2023-03-30T22:56:03.055Z,6.83
2023-03-30T22:58:30.107Z,6.83
2023-03-30T23:01:07.267Z,6.77
2023-03-30T23:03:34.491Z,7.47
2023-03-30T23:06:01.961Z,7.33
2023-03-30T23:08:32.405Z,6.57
2023-03-30T23:11:05.210Z,6.63
2023-03-30T23:13:37.798Z,6.77
2023-03-30T23:16:08.986Z,6.17
2023-03-30T23:18:36.581Z,5.73
2023-03-30T23:21:06.688Z,6.70
2023-03-30T23:23:37.649Z,6.37
2023-03-30T23:26:10.651Z,6.43
2023-03-30T23:28:39.976Z,7.57
2023-03-30T23:31:18.223Z,7.37
2023-03-30T23:33:45.658Z,7.63
2023-03-30T23:36:13.952Z,7.43
2023-03-30T23:38:41.601Z,7.43
2023-03-30T23:41:09.093Z,6.77
2023-03-30T23:43:36.135Z,7.00
2023-03-30T23:46:03.913Z,8.10
2023-03-30T23:48:31.069Z,7.03
2023-03-30T23:50:58.276Z,7.83
2023-03-30T23:53:26.890Z,7.63
2023-03-30T23:55:55.548Z,8.37
2023-03-30T23:58:22.729Z,7.53
